createdAt,value
2023-02-06T00:01:23.503Z,47.96
2023-02-06T00:03:51.358Z,48.38
2023-02-06T00:06:18.753Z,48.44
2023-02-06T00:08:46.122Z,48.23
2023-02-06T00:11:16.629Z,47.94
2023-02-06T00:13:45.359Z,47.72
2023-02-06T00:16:18.083Z,47.59
2023-02-06T00:18:46.388Z,47.74
2023-02-06T00:21:14.254Z,47.46
2023-02-06T00:23:41.979Z,47.73
2023-02-06T00:26:09.689Z,48.62
2023-02-06T00:28:37.807Z,48.52
2023-02-06T00:31:06.517Z,48.55
2023-02-06T00:33:35.087Z,47.64
2023-02-06T00:36:04.168Z,47.54
2023-02-06T00:38:31.696Z,48.05
2023-02-06T00:40:59.415Z,48.25
2023-02-06T00:43:26.862Z,48.20
2023-02-06T00:45:55.329Z,48.22
2023-02-06T00:48:24.001Z,48.09
2023-02-06T00:50:52.887Z,47.93
2023-02-06T00:53:20.433Z,48.09
2023-02-06T00:55:48.162Z,48.36
2023-02-06T00:58:15.625Z,48.14
2023-02-06T01:00:43.968Z,47.88
2023-02-06T01:03:12.303Z,47.70
2023-02-06T01:05:39.787Z,48.01
2023-02-06T01:08:07.279Z,48.28
2023-02-06T01:10:34.955Z,48.24
2023-02-06T01:13:02.455Z,48.02
2023-02-06T01:15:29.924Z,48.15
2023-02-06T01:17:57.604Z,48.20
2023-02-06T01:20:25.049Z,48.14
2023-02-06T01:22:52.593Z,48.23
2023-02-06T01:25:20.286Z,48.42
2023-02-06T01:27:48.232Z,48.46
2023-02-06T01:30:15.703Z,48.04
2023-02-06T01:32:43.504Z,48.17
2023-02-06T01:35:11.968Z,47.67
2023-02-06T01:37:41.105Z,47.92
2023-02-06T01:40:14.119Z,47.91
2023-02-06T01:42:41.598Z,47.91
2023-02-06T01:45:21.389Z,47.92
2023-02-06T01:47:49.956Z,49.13
2023-02-06T01:50:18.921Z,48.65
2023-02-06T01:52:47.230Z,48.07
2023-02-06T01:55:14.845Z,48.19
2023-02-06T01:57:43.046Z,47.86
2023-02-06T02:00:11.548Z,48.43
2023-02-06T02:02:43.010Z,48.85
2023-02-06T02:05:11.812Z,48.75
2023-02-06T02:07:46.313Z,48.42
2023-02-06T02:10:14.177Z,48.86
2023-02-06T02:12:41.639Z,48.64
2023-02-06T02:15:09.392Z,48.81
2023-02-06T02:18:03.486Z,48.57
2023-02-06T02:20:46.060Z,49.10
2023-02-06T02:23:26.114Z,48.83
2023-02-06T02:26:15.188Z,48.57
2023-02-06T02:29:21.144Z,48.64
2023-02-06T02:32:36.606Z,48.96
2023-02-06T02:35:14.231Z,48.08
2023-02-06T02:37:57.072Z,48.87
2023-02-06T02:40:42.381Z,49.13
2023-02-06T02:43:20.492Z,48.41
2023-02-06T02:45:54.215Z,48.71
2023-02-06T02:48:28.543Z,49.20
2023-02-06T02:50:57.456Z,49.03
2023-02-06T02:53:26.251Z,49.43
2023-02-06T02:55:54.720Z,49.96
2023-02-06T02:58:30.972Z,49.39
2023-02-06T03:01:03.075Z,49.09
2023-02-06T03:03:35.045Z,49.07
2023-02-06T03:06:24.036Z,49.64
2023-02-06T03:09:01.286Z,50.05
2023-02-06T03:11:29.010Z,50.38
2023-02-06T03:14:06.496Z,50.47
2023-02-06T03:16:49.611Z,50.29
2023-02-06T03:19:21.678Z,50.77
2023-02-06T03:21:49.919Z,50.99
2023-02-06T03:24:24.714Z,50.64
2023-02-06T03:26:57.194Z,50.72
2023-02-06T03:29:24.988Z,50.52
2023-02-06T03:31:59.507Z,50.53
2023-02-06T03:34:46.830Z,51.06
2023-02-06T03:37:14.353Z,51.05
2023-02-06T03:39:42.070Z,50.86
2023-02-06T03:42:11.736Z,50.64
2023-02-06T03:44:44.439Z,50.75
2023-02-06T03:47:12.914Z,50.92
2023-02-06T03:49:41.708Z,51.11
2023-02-06T03:52:11.272Z,51.07
2023-02-06T03:54:41.392Z,50.95
2023-02-06T03:57:11.696Z,51.29
2023-02-06T03:59:39.449Z,50.83
2023-02-06T04:02:07.163Z,50.23
2023-02-06T04:04:38.655Z,50.60
2023-02-06T04:07:12.855Z,50.80
2023-02-06T04:09:40.855Z,50.97
2023-02-06T04:12:08.314Z,50.85
2023-02-06T04:14:36.889Z,50.87
2023-02-06T04:17:05.166Z,50.67
2023-02-06T04:19:33.750Z,50.84
2023-02-06T04:22:01.755Z,51.30
2023-02-06T04:24:31.007Z,51.25
2023-02-06T04:26:58.938Z,50.94
2023-02-06T04:29:26.419Z,50.61
2023-02-06T04:31:54.153Z,50.80
2023-02-06T04:34:21.590Z,51.15
2023-02-06T04:36:49.002Z,50.71
2023-02-06T04:39:16.639Z,51.10
2023-02-06T04:41:44.056Z,51.59
2023-02-06T04:44:11.496Z,51.72
2023-02-06T04:46:39.235Z,51.65
2023-02-06T04:49:06.600Z,51.72
2023-02-06T04:51:34.010Z,51.54
2023-02-06T04:54:02.154Z,52.18
2023-02-06T04:56:29.659Z,52.22
2023-02-06T04:58:57.507Z,51.54
2023-02-06T05:01:25.242Z,51.06
2023-02-06T05:03:52.899Z,50.78
2023-02-06T05:06:20.321Z,50.89
2023-02-06T05:08:48.014Z,51.21
2023-02-06T05:11:15.391Z,51.49
2023-02-06T05:13:42.796Z,51.50
2023-02-06T05:16:13.306Z,51.51
2023-02-06T05:18:41.448Z,51.27
2023-02-06T05:21:08.917Z,51.03
2023-02-06T05:23:36.794Z,50.34
2023-02-06T05:26:04.524Z,50.61
2023-02-06T05:28:35.361Z,50.75
2023-02-06T05:31:04.050Z,50.57
2023-02-06T05:33:31.694Z,50.54
2023-02-06T05:36:07.433Z,50.69
2023-02-06T05:38:35.103Z,50.56
2023-02-06T05:41:03.429Z,50.30
2023-02-06T05:43:30.815Z,50.07
2023-02-06T05:45:58.510Z,50.33
2023-02-06T05:48:28.717Z,50.79
2023-02-06T05:50:57.815Z,51.03
2023-02-06T05:53:25.731Z,50.47
2023-02-06T05:55:53.147Z,50.26
2023-02-06T05:58:20.803Z,50.83
2023-02-06T06:00:48.494Z,51.04
2023-02-06T06:03:16.216Z,50.77
2023-02-06T06:05:43.615Z,50.26
2023-02-06T06:08:12.564Z,50.18
2023-02-06T06:10:41.423Z,50.20
2023-02-06T06:13:12.108Z,50.31
2023-02-06T06:15:39.792Z,50.23
2023-02-06T06:18:07.292Z,50.18
2023-02-06T06:20:34.693Z,50.31
2023-02-06T06:23:02.486Z,50.26
2023-02-06T06:25:29.954Z,50.19
2023-02-06T06:27:57.409Z,50.55
2023-02-06T06:30:25.246Z,50.55
2023-02-06T06:32:52.944Z,50.11
2023-02-06T06:35:20.519Z,49.66
2023-02-06T06:37:48.230Z,49.55
2023-02-06T06:40:15.755Z,49.38
2023-02-06T06:42:43.398Z,49.16
2023-02-06T06:45:11.169Z,48.75
2023-02-06T06:47:38.548Z,48.84
2023-02-06T06:50:06.469Z,48.86
2023-02-06T06:52:34.142Z,48.50
2023-02-06T06:55:01.585Z,48.42
2023-02-06T06:57:31.921Z,48.58
2023-02-06T06:59:59.780Z,48.55
2023-02-06T07:02:28.534Z,48.21
2023-02-06T07:04:56.177Z,48.23
2023-02-06T07:07:23.963Z,48.11
2023-02-06T07:09:51.444Z,47.68
2023-02-06T07:12:18.886Z,47.39
2023-02-06T07:14:46.593Z,47.69
2023-02-06T07:17:13.988Z,47.61
2023-02-06T07:19:41.432Z,47.46
2023-02-06T07:22:09.190Z,47.65
2023-02-06T07:24:36.650Z,47.37
2023-02-06T07:27:04.088Z,47.25
2023-02-06T07:29:31.952Z,47.29
2023-02-06T07:31:59.708Z,47.01
2023-02-06T07:34:27.242Z,47.09
2023-02-06T07:36:55.361Z,46.67
2023-02-06T07:39:22.796Z,46.51
2023-02-06T07:41:50.863Z,46.44
2023-02-06T07:44:19.583Z,46.16
2023-02-06T07:46:47.716Z,45.32
2023-02-06T07:49:15.892Z,44.97
2023-02-06T07:51:44.545Z,44.29
2023-02-06T07:54:12.532Z,44.01
2023-02-06T07:56:40.140Z,43.93
2023-02-06T07:59:08.593Z,43.31
2023-02-06T08:01:36.322Z,43.03
2023-02-06T08:04:04.174Z,42.38
2023-02-06T08:06:32.938Z,42.30
2023-02-06T08:09:00.355Z,42.26
2023-02-06T08:11:30.322Z,41.28
2023-02-06T08:13:58.127Z,41.22
2023-02-06T08:16:25.741Z,40.98
2023-02-06T08:18:53.508Z,40.56
2023-02-06T08:21:23.430Z,40.75
2023-02-06T08:23:58.701Z,40.07
2023-02-06T08:26:29.086Z,39.76
2023-02-06T08:28:57.396Z,39.36
2023-02-06T08:31:30.993Z,38.28
2023-02-06T08:33:59.043Z,36.46
2023-02-06T08:36:28.058Z,36.61
2023-02-06T08:38:55.453Z,36.19
2023-02-06T08:41:26.010Z,36.28
2023-02-06T08:43:55.361Z,35.46
2023-02-06T08:46:25.052Z,35.87
2023-02-06T08:48:56.892Z,35.72
2023-02-06T08:51:27.881Z,36.15
2023-02-06T08:53:59.299Z,36.39
2023-02-06T08:56:27.721Z,36.28
2023-02-06T08:58:56.434Z,35.10
2023-02-06T09:01:23.908Z,35.65
2023-02-06T09:03:55.300Z,34.88
2023-02-06T09:06:23.050Z,34.61
2023-02-06T09:08:50.455Z,34.42
2023-02-06T09:11:19.476Z,34.16
2023-02-06T09:13:49.329Z,34.27
2023-02-06T09:16:20.153Z,34.16
2023-02-06T09:18:48.983Z,34.57
2023-02-06T09:21:19.032Z,34.34
2023-02-06T09:23:48.632Z,34.24
2023-02-06T09:26:19.569Z,33.83
2023-02-06T09:28:46.986Z,33.45
2023-02-06T09:31:14.563Z,33.83
2023-02-06T09:33:42.303Z,33.16
2023-02-06T09:36:15.891Z,33.09
2023-02-06T09:38:45.966Z,32.13
2023-02-06T09:41:35.566Z,33.14
2023-02-06T09:44:06.535Z,33.59
2023-02-06T09:46:37.068Z,32.95
2023-02-06T09:49:21.294Z,32.48
2023-02-06T09:52:15.203Z,32.94
2023-02-06T09:54:58.861Z,33.03
2023-02-06T09:57:57.416Z,32.77
2023-02-06T10:00:45.067Z,32.21
2023-02-06T10:03:12.655Z,32.72
2023-02-06T10:05:51.177Z,32.49
2023-02-06T10:08:37.566Z,32.20
2023-02-06T10:11:14.416Z,33.02
2023-02-06T10:13:49.658Z,32.82
2023-02-06T10:16:30.162Z,32.51
2023-02-06T10:19:03.337Z,32.62
2023-02-06T10:21:35.563Z,33.24
2023-02-06T10:24:24.993Z,33.23
2023-02-06T10:26:53.496Z,33.54
2023-02-06T10:29:26.888Z,32.63
2023-02-06T10:32:19.203Z,33.60
2023-02-06T10:35:00.594Z,33.67
2023-02-06T10:37:57.230Z,33.89
2023-02-06T10:40:42.920Z,33.98
2023-02-06T10:43:40.378Z,32.98
2023-02-06T10:46:20.533Z,33.65
2023-02-06T10:49:02.859Z,33.51
2023-02-06T10:51:33.221Z,33.68
2023-02-06T10:54:03.484Z,33.63
2023-02-06T10:56:36.748Z,33.81
2023-02-06T10:59:18.000Z,33.44
2023-02-06T11:01:47.300Z,33.75
2023-02-06T11:04:20.455Z,33.51
2023-02-06T11:06:48.214Z,33.57
2023-02-06T11:09:15.842Z,34.00
2023-02-06T11:11:48.551Z,34.81
2023-02-06T11:14:37.714Z,34.27
2023-02-06T11:17:05.156Z,34.94
2023-02-06T11:19:42.574Z,35.36
2023-02-06T11:22:15.835Z,36.19
2023-02-06T11:24:59.446Z,36.45
2023-02-06T11:27:27.632Z,36.60
2023-02-06T11:29:55.698Z,35.79
2023-02-06T11:32:41.182Z,37.16
2023-02-06T11:35:26.767Z,37.64
2023-02-06T11:37:56.555Z,37.65
2023-02-06T11:40:28.370Z,37.17
2023-02-06T11:43:15.244Z,38.13
2023-02-06T11:45:43.147Z,38.19
2023-02-06T11:48:39.525Z,37.75
2023-02-06T11:51:08.757Z,38.08
2023-02-06T11:53:37.470Z,38.08
2023-02-06T11:56:20.717Z,38.48
2023-02-06T11:59:22.934Z,39.03
2023-02-06T12:01:50.910Z,38.64
2023-02-06T12:04:40.688Z,38.41
2023-02-06T12:07:15.525Z,39.72
2023-02-06T12:09:43.297Z,39.64
2023-02-06T12:12:19.846Z,38.88
2023-02-06T12:15:36.237Z,39.31
2023-02-06T12:18:05.850Z,38.78
2023-02-06T12:20:45.758Z,37.83
2023-02-06T12:23:19.315Z,37.92
2023-02-06T12:25:53.110Z,37.78
2023-02-06T12:28:38.675Z,36.82
2023-02-06T12:31:11.883Z,36.10
2023-02-06T12:33:46.395Z,36.28
2023-02-06T12:36:17.535Z,36.58
2023-02-06T12:39:01.796Z,36.22
2023-02-06T12:41:41.058Z,35.96
2023-02-06T12:44:20.513Z,36.10
2023-02-06T12:46:53.638Z,35.66
2023-02-06T12:49:34.697Z,35.56
2023-02-06T12:52:16.626Z,35.96
2023-02-06T12:54:49.486Z,36.06
2023-02-06T12:57:23.217Z,36.64
2023-02-06T13:00:09.653Z,37.23
2023-02-06T13:03:32.766Z,37.04
2023-02-06T13:06:13.455Z,36.74
2023-02-06T13:08:47.430Z,36.74
2023-02-06T13:11:35.660Z,37.01
2023-02-06T13:14:27.068Z,36.59
2023-02-06T13:17:24.602Z,37.36
2023-02-06T13:20:03.222Z,37.89
2023-02-06T13:22:50.113Z,37.07
2023-02-06T13:25:30.338Z,37.13
2023-02-06T13:28:22.613Z,36.90
2023-02-06T13:31:00.151Z,37.29
2023-02-06T13:33:58.011Z,37.67
2023-02-06T13:36:41.076Z,37.85
2023-02-06T13:39:23.721Z,37.80
2023-02-06T13:41:51.799Z,37.71
2023-02-06T13:44:26.689Z,37.99
2023-02-06T13:47:22.560Z,37.43
2023-02-06T13:50:08.638Z,36.95
2023-02-06T13:52:47.749Z,37.84
2023-02-06T13:55:18.432Z,37.26
2023-02-06T13:58:07.872Z,37.65
2023-02-06T14:00:39.803Z,38.58
2023-02-06T14:03:26.082Z,38.57
2023-02-06T14:06:20.702Z,39.28
2023-02-06T14:09:03.267Z,38.54
2023-02-06T14:12:11.031Z,39.55
2023-02-06T14:14:43.769Z,39.77
2023-02-06T14:17:16.469Z,40.24
2023-02-06T14:19:51.059Z,41.21
2023-02-06T14:22:42.354Z,41.21
2023-02-06T14:25:20.297Z,40.48
2023-02-06T14:27:57.493Z,40.36
2023-02-06T14:30:37.309Z,41.45
2023-02-06T14:33:40.118Z,41.95
2023-02-06T14:36:13.821Z,41.43
2023-02-06T14:39:01.240Z,41.85
2023-02-06T14:41:31.106Z,42.39
2023-02-06T14:43:59.602Z,41.57
2023-02-06T14:46:27.520Z,41.92
2023-02-06T14:48:57.455Z,41.68
2023-02-06T14:51:24.836Z,41.67
2023-02-06T14:54:01.530Z,41.20
2023-02-06T14:56:39.281Z,40.95
2023-02-06T14:59:12.554Z,41.13
2023-02-06T15:01:41.240Z,42.25
2023-02-06T15:04:15.880Z,42.19
2023-02-06T15:06:54.172Z,42.40
2023-02-06T15:09:44.128Z,42.60
2023-02-06T15:12:20.509Z,42.41
2023-02-06T15:15:18.684Z,42.07
2023-02-06T15:18:02.344Z,42.63
2023-02-06T15:20:41.313Z,42.02
2023-02-06T15:23:18.678Z,41.57
2023-02-06T15:26:01.935Z,41.65
2023-02-06T15:28:31.666Z,41.38
2023-02-06T15:31:00.728Z,41.42
2023-02-06T15:33:31.035Z,41.29
2023-02-06T15:36:01.404Z,41.08
2023-02-06T15:38:31.171Z,41.25
2023-02-06T15:41:05.728Z,41.38
2023-02-06T15:43:33.463Z,41.02
2023-02-06T15:46:03.685Z,40.96
2023-02-06T15:48:31.032Z,41.16
2023-02-06T15:51:07.426Z,41.38
2023-02-06T15:53:39.060Z,41.31
2023-02-06T15:56:22.002Z,40.59
2023-02-06T15:58:55.228Z,40.92
2023-02-06T16:01:22.645Z,38.97
2023-02-06T16:03:53.439Z,39.31
2023-02-06T16:06:20.858Z,38.96
2023-02-06T16:08:54.896Z,38.88
2023-02-06T16:11:47.665Z,38.58
2023-02-06T16:14:25.145Z,37.71
2023-02-06T16:17:07.943Z,37.45
2023-02-06T16:19:46.601Z,37.90
2023-02-06T16:22:33.430Z,38.22
2023-02-06T16:25:25.833Z,38.32
2023-02-06T16:27:53.616Z,38.24
2023-02-06T16:30:30.361Z,38.09
2023-02-06T16:33:00.164Z,37.85
2023-02-06T16:35:28.245Z,37.79
2023-02-06T16:37:56.045Z,37.58
2023-02-06T16:40:26.138Z,37.48
2023-02-06T16:42:53.706Z,37.78
2023-02-06T16:45:26.428Z,37.99
2023-02-06T16:47:54.972Z,38.33
2023-02-06T16:50:22.402Z,38.51
2023-02-06T16:52:54.635Z,38.83
2023-02-06T16:55:24.440Z,38.81
2023-02-06T16:57:54.157Z,38.65
2023-02-06T17:00:25.278Z,38.48
2023-02-06T17:02:53.517Z,38.84
2023-02-06T17:05:24.380Z,38.75
2023-02-06T17:07:52.835Z,38.98
2023-02-06T17:10:23.375Z,38.88
2023-02-06T17:12:50.922Z,39.15
2023-02-06T17:15:19.499Z,39.70
2023-02-06T17:17:47.133Z,39.87
2023-02-06T17:20:31.638Z,39.93
2023-02-06T17:22:59.516Z,40.28
2023-02-06T17:25:26.971Z,40.84
2023-02-06T17:27:54.497Z,40.91
2023-02-06T17:30:24.569Z,40.81
2023-02-06T17:32:52.454Z,41.30
2023-02-06T17:35:20.146Z,41.49
2023-02-06T17:37:49.195Z,41.89
2023-02-06T17:40:23.038Z,42.32
2023-02-06T17:42:50.722Z,42.54
2023-02-06T17:45:18.186Z,42.92
2023-02-06T17:47:45.921Z,43.83
2023-02-06T17:50:16.554Z,44.54
2023-02-06T17:52:43.931Z,44.20
2023-02-06T17:55:11.699Z,44.16
2023-02-06T17:57:39.758Z,44.03
2023-02-06T18:00:12.502Z,44.09
2023-02-06T18:02:40.378Z,44.17
2023-02-06T18:05:08.781Z,43.86
2023-02-06T18:07:39.266Z,43.88
2023-02-06T18:10:08.086Z,44.03
2023-02-06T18:12:35.582Z,44.33
2023-02-06T18:15:03.967Z,44.69
2023-02-06T18:17:31.881Z,44.38
2023-02-06T18:19:59.345Z,44.28
2023-02-06T18:22:26.968Z,44.22
2023-02-06T18:24:54.767Z,44.33
2023-02-06T18:27:23.084Z,44.32
2023-02-06T18:29:54.831Z,44.49
2023-02-06T18:32:22.664Z,44.61
2023-02-06T18:34:50.367Z,44.58
2023-02-06T18:37:17.967Z,44.55
2023-02-06T18:39:45.671Z,44.66
2023-02-06T18:42:31.813Z,44.47
2023-02-06T18:44:59.517Z,44.59
2023-02-06T18:47:26.886Z,44.72
2023-02-06T18:49:54.378Z,45.25
2023-02-06T18:52:22.161Z,44.93
2023-02-06T18:54:49.849Z,45.32
2023-02-06T18:57:17.447Z,44.80
2023-02-06T18:59:45.363Z,44.92
2023-02-06T19:02:12.933Z,45.00
2023-02-06T19:04:42.088Z,45.19
2023-02-06T19:07:11.678Z,45.81
2023-02-06T19:09:39.444Z,45.46
2023-02-06T19:12:07.417Z,45.42
2023-02-06T19:14:35.553Z,45.69
2023-02-06T19:17:03.029Z,46.02
2023-02-06T19:19:30.530Z,45.80
2023-02-06T19:21:58.371Z,46.11
2023-02-06T19:24:27.742Z,46.18
2023-02-06T19:26:56.417Z,46.24
2023-02-06T19:29:35.086Z,46.20
2023-02-06T19:32:05.300Z,46.46
2023-02-06T19:34:36.197Z,46.01
2023-02-06T19:37:04.969Z,46.07
2023-02-06T19:39:34.309Z,46.25
2023-02-06T19:42:06.733Z,46.11
2023-02-06T19:44:35.281Z,46.38
2023-02-06T19:47:03.690Z,46.89
2023-02-06T19:49:31.451Z,46.58
2023-02-06T19:51:59.761Z,46.97
2023-02-06T19:54:27.889Z,47.42
2023-02-06T19:56:55.445Z,47.18
2023-02-06T19:59:26.670Z,47.38
2023-02-06T20:02:01.944Z,47.35
2023-02-06T20:04:33.050Z,47.22
2023-02-06T20:07:00.654Z,47.03
2023-02-06T20:09:28.593Z,47.23
2023-02-06T20:11:56.871Z,47.25
2023-02-06T20:14:25.446Z,47.10
2023-02-06T20:16:53.065Z,47.49
2023-02-06T20:19:23.459Z,47.81
2023-02-06T20:21:54.212Z,47.56
2023-02-06T20:24:24.295Z,48.01
2023-02-06T20:26:57.828Z,47.92
2023-02-06T20:29:28.973Z,47.75
2023-02-06T20:31:57.289Z,47.92
2023-02-06T20:34:26.751Z,48.17
2023-02-06T20:36:55.473Z,47.72
2023-02-06T20:39:23.707Z,48.58
2023-02-06T20:41:52.060Z,48.58
2023-02-06T20:44:20.244Z,48.55
2023-02-06T20:46:48.103Z,48.23
2023-02-06T20:49:21.486Z,48.30
2023-02-06T20:51:49.637Z,48.57
2023-02-06T20:54:18.643Z,48.80
2023-02-06T20:56:46.383Z,48.85
2023-02-06T20:59:16.546Z,48.63
2023-02-06T21:01:44.618Z,48.57
2023-02-06T21:04:14.466Z,48.80
2023-02-06T21:06:43.182Z,49.48
2023-02-06T21:09:11.558Z,49.45
2023-02-06T21:11:42.142Z,49.13
2023-02-06T21:14:10.149Z,49.26
2023-02-06T21:16:38.725Z,49.31
2023-02-06T21:19:08.189Z,49.49
2023-02-06T21:21:37.125Z,49.47
2023-02-06T21:24:05.217Z,49.84
2023-02-06T21:26:32.989Z,49.66
2023-02-06T21:29:02.428Z,49.54
2023-02-06T21:31:37.748Z,49.76
2023-02-06T21:34:09.644Z,49.79
2023-02-06T21:36:39.013Z,49.73
2023-02-06T21:39:07.308Z,49.94
2023-02-06T21:41:35.841Z,49.87
2023-02-06T21:44:04.087Z,50.04
2023-02-06T21:46:31.858Z,50.13
2023-02-06T21:48:59.493Z,50.25
2023-02-06T21:51:27.413Z,50.18
2023-02-06T21:53:56.398Z,50.16
2023-02-06T21:56:26.190Z,49.64
2023-02-06T21:58:53.979Z,50.32
2023-02-06T22:01:25.267Z,50.34
2023-02-06T22:03:53.141Z,50.36
2023-02-06T22:06:21.107Z,50.52
2023-02-06T22:08:54.278Z,50.31
2023-02-06T22:11:24.300Z,50.42
2023-02-06T22:13:52.676Z,50.46
2023-02-06T22:16:22.134Z,50.45
2023-02-06T22:18:50.271Z,50.70
2023-02-06T22:21:20.408Z,50.46
2023-02-06T22:23:49.378Z,50.96
2023-02-06T22:26:19.249Z,50.37
2023-02-06T22:28:46.967Z,50.28
2023-02-06T22:31:22.964Z,50.52
2023-02-06T22:33:51.345Z,50.58
2023-02-06T22:36:21.058Z,50.44
2023-02-06T22:38:55.746Z,50.22
2023-02-06T22:41:23.579Z,50.36
2023-02-06T22:43:51.609Z,50.61
2023-02-06T22:46:26.242Z,50.30
2023-02-06T22:48:54.442Z,50.19
2023-02-06T22:51:22.412Z,50.19
2023-02-06T22:53:50.201Z,50.40
2023-02-06T22:56:27.820Z,50.74
2023-02-06T22:58:58.110Z,50.37
2023-02-06T23:01:29.982Z,50.59
2023-02-06T23:03:57.935Z,50.33
2023-02-06T23:06:27.651Z,50.28
2023-02-06T23:08:56.448Z,50.27
2023-02-06T23:11:24.464Z,50.17
2023-02-06T23:13:54.505Z,50.40
2023-02-06T23:16:22.206Z,50.51
2023-02-06T23:18:50.081Z,50.53
2023-02-06T23:21:20.374Z,50.21
2023-02-06T23:23:48.425Z,50.21
2023-02-06T23:26:17.251Z,50.40
2023-02-06T23:28:45.506Z,50.52
2023-02-06T23:31:13.007Z,50.61
2023-02-06T23:33:40.816Z,50.54
2023-02-06T23:36:14.198Z,50.68
2023-02-06T23:38:42.221Z,50.85
2023-02-06T23:41:29.030Z,51.14
2023-02-06T23:44:01.991Z,50.46
2023-02-06T23:46:32.308Z,50.45
2023-02-06T23:48:59.905Z,50.65
2023-02-06T23:51:27.779Z,50.69
2023-02-06T23:53:55.499Z,50.68
2023-02-06T23:56:25.670Z,50.96
2023-02-06T23:58:54.058Z,50.93
